Time;durP1;ratioP1;P1;durP2;ratioP2;P2;SDS_P1;SDS_P2;PMS_P1;PMS_P2;Temp;Humidity;BMP_temperature;BMP_pressure;BME280_temperature;BME280_humidity;BME280_pressure;Samples;Min_cycle;Max_cycle;Signal;HPM_P1;HPM_P2
2023/07/20 00:01:47;;;;;;;2.87;2.77;;;22.40;99.90;;;;;;5041929;28;20194;-56
2023/07/20 00:04:15;;;;;;;4.57;3.73;;;22.40;99.90;;;;;;5031746;28;20292;-55
2023/07/20 00:06:42;;;;;;;3.57;3.30;;;22.40;99.90;;;;;;5045315;28;20610;-56
2023/07/20 00:09:09;;;;;;;2.87;2.77;;;22.40;99.90;;;;;;5047798;28;20213;-56
2023/07/20 00:11:39;;;;;;;3.17;3.03;;;22.40;99.90;;;;;;5049708;28;20213;-56
2023/07/20 00:14:06;;;;;;;3.13;3.03;;;22.40;99.90;;;;;;5048504;28;20226;-56
2023/07/20 00:16:33;;;;;;;3.70;3.40;;;22.40;99.90;;;;;;5047709;28;20228;-56
2023/07/20 00:19:00;;;;;;;3.90;2.87;;;22.40;99.90;;;;;;5044593;28;20266;-55
2023/07/20 00:21:27;;;;;;;4.10;3.37;;;22.40;99.90;;;;;;5045818;28;20202;-55
2023/07/20 00:23:54;;;;;;;3.37;3.17;;;22.40;99.90;;;;;;5037930;28;20218;-55
2023/07/20 00:26:21;;;;;;;3.30;2.90;;;22.40;99.90;;;;;;5046548;28;20255;-56
2023/07/20 00:28:51;;;;;;;4.90;3.63;;;22.40;99.90;;;;;;5046784;28;20206;-56
2023/07/20 00:31:18;;;;;;;6.80;3.17;;;22.40;99.90;;;;;;5047923;28;20206;-56
2023/07/20 00:33:45;;;;;;;3.57;3.30;;;22.30;99.90;;;;;;5048894;28;20198;-55
2023/07/20 00:36:12;;;;;;;3.20;3.00;;;22.40;99.90;;;;;;5044482;28;20284;-56
2023/07/20 00:38:39;;;;;;;3.17;2.97;;;22.40;99.90;;;;;;5036880;28;20620;-55
2023/07/20 00:41:06;;;;;;;3.67;3.07;;;22.40;99.90;;;;;;5043307;28;20203;-56
2023/07/20 00:43:33;;;;;;;3.17;2.90;;;22.50;99.90;;;;;;5040240;28;20194;-56
2023/07/20 00:46:02;;;;;;;3.67;3.33;;;22.50;99.90;;;;;;5037942;28;20671;-55
2023/07/20 00:48:30;;;;;;;3.03;2.83;;;22.40;99.90;;;;;;5046699;28;20197;-56
2023/07/20 00:50:57;;;;;;;3.90;3.60;;;22.30;99.90;;;;;;5044789;28;20202;-55
2023/07/20 00:53:24;;;;;;;3.00;2.73;;;22.30;99.90;;;;;;5045477;28;20233;-56
2023/07/20 00:55:51;;;;;;;5.03;3.37;;;22.40;99.90;;;;;;5038695;28;20225;-56
2023/07/20 00:58:18;;;;;;;3.77;3.20;;;22.30;99.90;;;;;;5049761;28;20232;-55
2023/07/20 01:00:45;;;;;;;3.13;2.90;;;22.40;99.90;;;;;;5045895;28;20260;-55
2023/07/20 01:03:14;;;;;;;2.77;2.07;;;22.40;99.90;;;;;;5043774;28;20194;-56
2023/07/20 01:05:48;;;;;;;3.80;2.17;;;22.50;99.90;;;;;;5042551;28;20221;-56
2023/07/20 01:08:25;;;;;;;3.40;2.13;;;22.50;99.90;;;;;;5042211;28;20600;-55
2023/07/20 01:10:58;;;;;;;2.17;2.07;;;22.50;99.90;;;;;;5041461;28;20202;-56
2023/07/20 01:13:27;;;;;;;2.90;2.07;;;22.40;99.90;;;;;;5044639;28;20249;-56
2023/07/20 01:15:58;;;;;;;3.20;2.00;;;22.40;99.90;;;;;;5047631;28;20214;-56
2023/07/20 01:18:26;;;;;;;1.60;1.40;;;22.40;99.90;;;;;;5044946;28;20205;-55
2023/07/20 01:20:57;;;;;;;1.73;1.63;;;22.40;99.90;;;;;;5047997;28;20729;-55
2023/07/20 01:23:48;;;;;;;2.17;2.07;;;22.40;99.90;;;;;;5039910;28;20664;-55
2023/07/20 01:26:38;;;;;;;2.47;1.57;;;22.40;99.90;;;;;;5051962;28;20272;-55
2023/07/20 01:29:33;;;;;;;1.97;1.43;;;22.40;99.90;;;;;;5038086;28;20552;-55
2023/07/20 01:32:07;;;;;;;1.60;1.60;;;22.40;99.90;;;;;;5049757;28;20217;-55
2023/07/20 01:34:36;;;;;;;2.50;1.50;;;22.40;99.90;;;;;;5052466;28;20239;-55
2023/07/20 01:37:04;;;;;;;1.33;1.20;;;22.40;99.90;;;;;;5045075;28;20205;-56
2023/07/20 01:39:32;;;;;;;1.53;1.43;;;22.40;99.90;;;;;;5050195;28;20259;-56
2023/07/20 01:41:59;;;;;;;1.57;1.47;;;22.40;99.90;;;;;;5044482;28;20249;-55
2023/07/20 01:44:26;;;;;;;3.70;1.80;;;22.40;99.90;;;;;;5052582;28;20324;-56
2023/07/20 01:46:53;;;;;;;3.50;1.37;;;22.30;99.90;;;;;;5084620;22;20740;-50
2023/07/20 01:49:22;;;;;;;1.23;1.13;;;22.30;99.90;;;;;;5067381;28;20202;-50
2023/07/20 01:51:48;;;;;;;1.33;1.10;;;22.30;99.90;;;;;;5062744;28;20225;-50
2023/07/20 01:54:15;;;;;;;1.67;1.57;;;22.30;99.90;;;;;;5063207;28;20259;-50
2023/07/20 01:56:42;;;;;;;3.43;1.93;;;22.20;99.90;;;;;;5057288;28;20292;-50
2023/07/20 01:59:09;;;;;;;1.47;1.03;;;22.10;99.90;;;;;;5036154;28;20668;-50
2023/07/20 02:01:36;;;;;;;5.63;1.67;;;22.10;99.90;;;;;;5047073;28;20206;-50
2023/07/20 02:04:03;;;;;;;3.23;1.30;;;22.10;99.90;;;;;;5046886;28;20580;-50
2023/07/20 02:06:33;;;;;;;3.13;1.17;;;22.10;99.90;;;;;;5042977;28;20218;-50
2023/07/20 02:09:00;;;;;;;1.97;1.20;;;22.20;99.90;;;;;;5050045;28;20206;-51
2023/07/20 02:11:27;;;;;;;2.60;1.63;;;22.10;99.90;;;;;;5050921;28;20660;-50
2023/07/20 02:13:53;;;;;;;1.57;1.47;;;22.10;99.90;;;;;;5039164;28;20688;-50
2023/07/20 02:16:20;;;;;;;1.33;1.30;;;22.00;99.90;;;;;;5046874;28;20769;-50
2023/07/20 02:18:47;;;;;;;1.53;1.30;;;22.00;99.90;;;;;;5049750;28;20634;-50
2023/07/20 02:21:14;;;;;;;2.53;1.23;;;21.90;99.90;;;;;;5050123;28;20629;-51
2023/07/20 02:23:43;;;;;;;1.10;1.10;;;22.00;99.90;;;;;;5048231;28;20316;-50
2023/07/20 02:26:10;;;;;;;1.07;0.93;;;22.00;99.90;;;;;;5049007;28;20225;-50
2023/07/20 02:28:37;;;;;;;1.40;1.30;;;22.10;99.90;;;;;;5049326;28;20248;-50
2023/07/20 02:31:04;;;;;;;5.80;1.23;;;22.20;99.90;;;;;;5049367;28;20202;-50
2023/07/20 02:33:31;;;;;;;1.20;1.10;;;22.20;99.90;;;;;;5047036;28;20218;-50
2023/07/20 02:35:58;;;;;;;1.30;1.20;;;22.00;99.90;;;;;;5043212;28;20217;-50
2023/07/20 02:38:25;;;;;;;2.03;1.87;;;21.90;99.90;;;;;;5048940;28;20721;-50
2023/07/20 02:40:53;;;;;;;1.87;1.40;;;21.90;99.90;;;;;;5049993;28;20202;-50
2023/07/20 02:43:20;;;;;;;1.20;1.20;;;21.90;99.90;;;;;;5047125;28;20226;-50
2023/07/20 02:45:47;;;;;;;2.00;1.30;;;22.00;99.90;;;;;;5047157;28;20197;-51
2023/07/20 02:48:14;;;;;;;1.00;1.00;;;21.90;99.90;;;;;;5042182;28;21991;-50
2023/07/20 02:50:41;;;;;;;1.70;1.60;;;21.80;99.90;;;;;;5044204;28;20655;-50
2023/07/20 02:53:08;;;;;;;2.27;1.47;;;21.80;99.90;;;;;;5048099;28;20222;-50
2023/07/20 02:55:35;;;;;;;1.60;1.40;;;21.80;99.90;;;;;;5038921;28;20205;-50
2023/07/20 02:58:04;;;;;;;1.03;1.03;;;21.80;99.90;;;;;;5045515;28;20273;-50
2023/07/20 03:00:31;;;;;;;1.50;1.40;;;21.80;99.90;;;;;;5044813;28;20223;-50
2023/07/20 03:02:58;;;;;;;3.33;1.47;;;21.80;99.90;;;;;;5047764;28;20620;-50
2023/07/20 03:05:25;;;;;;;1.23;1.13;;;21.70;99.90;;;;;;5042886;28;20198;-50
2023/07/20 03:07:52;;;;;;;2.10;1.60;;;21.70;99.90;;;;;;5039145;28;20304;-50
2023/07/20 03:10:19;;;;;;;3.70;1.60;;;21.70;99.90;;;;;;5049824;28;20625;-50
2023/07/20 03:12:46;;;;;;;3.30;1.57;;;21.70;99.90;;;;;;5044535;28;20577;-50
2023/07/20 03:15:15;;;;;;;1.33;1.33;;;21.70;99.90;;;;;;5042081;28;20630;-50
2023/07/20 03:17:42;;;;;;;2.77;1.50;;;21.60;99.90;;;;;;5049369;28;20217;-50
2023/07/20 03:20:10;;;;;;;1.60;1.53;;;21.70;99.90;;;;;;5046570;28;20202;-50
2023/07/20 03:22:37;;;;;;;1.73;1.63;;;21.70;99.90;;;;;;5047100;28;20319;-50
2023/07/20 03:25:05;;;;;;;2.07;1.70;;;21.80;99.90;;;;;;5045152;28;20198;-50
2023/07/20 03:27:32;;;;;;;5.90;1.60;;;21.70;99.90;;;;;;5046560;28;20325;-50
2023/07/20 03:29:59;;;;;;;2.03;1.83;;;21.60;99.90;;;;;;5049687;28;20703;-50
2023/07/20 03:32:27;;;;;;;3.93;1.83;;;21.60;99.90;;;;;;5043678;28;20292;-50
2023/07/20 03:34:54;;;;;;;1.93;1.67;;;21.40;99.90;;;;;;5037976;28;20198;-50
2023/07/20 03:37:21;;;;;;;1.87;1.50;;;21.20;99.90;;;;;;5052594;28;20586;-50
2023/07/20 03:39:48;;;;;;;1.40;1.37;;;21.20;99.90;;;;;;5041366;28;20286;-50
2023/07/20 03:42:15;;;;;;;1.73;1.63;;;21.00;99.90;;;;;;5050459;28;20205;-50
2023/07/20 03:44:42;;;;;;;2.50;1.50;;;20.90;99.90;;;;;;5052778;28;20240;-50
2023/07/20 03:47:10;;;;;;;2.13;2.00;;;21.00;99.90;;;;;;5047885;28;20230;-50
2023/07/20 03:49:38;;;;;;;1.57;1.53;;;20.90;99.90;;;;;;5049831;28;20202;-50
2023/07/20 03:52:06;;;;;;;2.90;1.80;;;20.90;99.90;;;;;;5048160;28;20198;-50
2023/07/20 03:54:33;;;;;;;2.13;2.03;;;20.80;99.90;;;;;;5045457;28;20198;-50
2023/07/20 03:57:00;;;;;;;2.53;1.77;;;20.70;99.90;;;;;;5042057;28;20217;-50
2023/07/20 03:59:27;;;;;;;1.43;1.40;;;20.70;99.90;;;;;;5041376;28;20271;-50
2023/07/20 04:01:54;;;;;;;2.57;1.73;;;20.70;99.90;;;;;;5037181;28;20193;-50
2023/07/20 04:04:21;;;;;;;2.10;1.80;;;20.60;99.90;;;;;;5040445;28;20243;-50
2023/07/20 04:06:50;;;;;;;3.23;2.03;;;20.60;99.90;;;;;;5046179;28;20221;-50
2023/07/20 04:09:16;;;;;;;2.93;1.83;;;20.70;99.90;;;;;;5050135;28;20197;-50
2023/07/20 04:11:43;;;;;;;4.10;2.03;;;20.70;99.90;;;;;;5039605;28;20206;-50
2023/07/20 04:14:10;;;;;;;3.27;1.33;;;20.70;99.90;;;;;;5039101;28;20253;-50
2023/07/20 04:16:37;;;;;;;1.97;1.50;;;20.70;99.90;;;;;;5045027;28;20580;-50
2023/07/20 04:19:05;;;;;;;2.20;1.73;;;20.70;99.90;;;;;;5040504;28;20198;-50
2023/07/20 04:21:32;;;;;;;2.40;1.10;;;20.60;99.90;;;;;;5038851;28;20944;-50
2023/07/20 04:24:00;;;;;;;5.43;1.27;;;20.60;99.90;;;;;;5042333;28;22108;-50
2023/07/20 04:26:27;;;;;;;2.57;1.63;;;20.60;99.90;;;;;;5043878;28;20217;-50
2023/07/20 04:28:54;;;;;;;2.07;1.93;;;20.60;99.90;;;;;;5041669;28;20217;-49
2023/07/20 04:31:21;;;;;;;1.80;1.40;;;20.60;99.90;;;;;;5042410;28;20198;-50
2023/07/20 04:33:48;;;;;;;1.77;1.57;;;20.60;99.90;;;;;;5039970;28;20255;-50
2023/07/20 04:36:19;;;;;;;2.23;1.37;;;20.50;99.90;;;;;;5042384;28;20225;-50
2023/07/20 04:38:46;;;;;;;2.40;1.47;;;20.50;99.90;;;;;;5042588;28;20213;-50
2023/07/20 04:41:14;;;;;;;1.83;1.17;;;20.50;99.90;;;;;;5043574;28;20226;-50
2023/07/20 04:43:42;;;;;;;1.23;1.23;;;20.50;99.90;;;;;;5042127;28;20194;-50
2023/07/20 04:46:09;;;;;;;1.57;1.20;;;20.60;99.90;;;;;;5042421;28;20225;-50
2023/07/20 04:48:36;;;;;;;1.80;1.43;;;20.60;99.90;;;;;;5042848;28;20197;-50
2023/07/20 04:51:04;;;;;;;7.00;2.07;;;20.70;99.90;;;;;;5041982;28;20206;-50
2023/07/20 04:53:31;;;;;;;2.20;1.30;;;20.70;99.90;;;;;;5039595;28;20225;-50
2023/07/20 04:55:59;;;;;;;1.30;1.20;;;20.60;99.90;;;;;;5045286;28;20309;-50
2023/07/20 04:58:27;;;;;;;1.10;1.10;;;20.70;99.90;;;;;;5039089;28;20734;-50
2023/07/20 05:00:54;;;;;;;1.63;1.43;;;20.70;99.90;;;;;;5041718;28;20194;-50
2023/07/20 05:03:21;;;;;;;1.87;1.10;;;20.70;99.90;;;;;;5042177;28;20257;-50
2023/07/20 05:05:49;;;;;;;3.10;1.37;;;20.80;99.90;;;;;;5041145;28;20198;-50
2023/07/20 05:08:16;;;;;;;2.00;1.30;;;20.80;99.90;;;;;;5043219;28;20206;-50
2023/07/20 05:10:43;;;;;;;1.37;1.37;;;20.90;99.90;;;;;;5043055;28;20599;-50
2023/07/20 05:13:10;;;;;;;1.23;1.23;;;20.90;99.90;;;;;;5036111;28;20226;-50
2023/07/20 05:15:38;;;;;;;2.17;1.67;;;20.90;99.90;;;;;;5040343;28;20247;-50
2023/07/20 05:18:05;;;;;;;2.40;1.83;;;20.90;99.90;;;;;;5042175;28;20214;-50
2023/07/20 05:20:33;;;;;;;2.00;1.83;;;20.80;99.90;;;;;;5046465;28;20260;-50
2023/07/20 05:23:00;;;;;;;4.27;1.27;;;20.80;99.90;;;;;;5049904;28;20900;-50
2023/07/20 05:25:28;;;;;;;1.37;1.27;;;20.70;99.90;;;;;;5043162;28;20664;-50
2023/07/20 05:27:56;;;;;;;1.60;1.50;;;20.60;99.90;;;;;;5040408;28;20218;-50
2023/07/20 05:30:23;;;;;;;1.37;1.27;;;20.60;99.90;;;;;;5038737;28;20229;-50
2023/07/20 05:32:53;;;;;;;2.07;1.33;;;20.50;99.90;;;;;;5044879;28;20212;-50
2023/07/20 05:35:20;;;;;;;1.70;1.60;;;20.40;99.90;;;;;;5040588;28;20869;-50
2023/07/20 05:37:47;;;;;;;1.83;1.40;;;20.30;99.90;;;;;;5044892;28;20217;-50
2023/07/20 05:40:18;;;;;;;2.63;2.33;;;20.30;99.90;;;;;;5049020;28;20198;-50
2023/07/20 05:42:46;;;;;;;2.00;1.40;;;20.30;99.90;;;;;;5045166;28;20202;-50
2023/07/20 05:45:13;;;;;;;1.93;1.83;;;20.30;99.90;;;;;;5050070;28;20718;-50
2023/07/20 05:47:44;;;;;;;2.60;1.83;;;20.20;99.90;;;;;;5035805;28;20284;-50
2023/07/20 05:50:12;;;;;;;2.10;1.83;;;20.20;99.90;;;;;;5032075;28;20768;-50
2023/07/20 05:52:40;;;;;;;5.13;1.53;;;20.10;99.90;;;;;;5039717;28;20210;-50
2023/07/20 05:55:08;;;;;;;1.97;1.83;;;20.00;99.90;;;;;;5047796;28;20308;-50
2023/07/20 05:57:36;;;;;;;1.93;1.63;;;19.90;99.90;;;;;;5047408;28;20643;-50
2023/07/20 06:00:04;;;;;;;4.23;1.83;;;19.90;99.90;;;;;;5050347;28;20759;-50
2023/07/20 06:02:32;;;;;;;1.83;1.60;;;19.90;99.90;;;;;;5044452;28;20229;-50
2023/07/20 06:04:59;;;;;;;7.33;1.67;;;20.00;99.90;;;;;;5051120;28;20206;-50
2023/07/20 06:07:28;;;;;;;1.47;1.40;;;20.10;99.90;;;;;;5046128;28;20264;-50
2023/07/20 06:09:55;;;;;;;2.93;1.43;;;20.30;99.90;;;;;;5052979;28;20205;-50
2023/07/20 06:12:22;;;;;;;2.40;1.50;;;20.50;99.90;;;;;;5050972;28;20194;-50
2023/07/20 06:14:49;;;;;;;1.30;1.20;;;20.80;99.90;;;;;;5039286;28;20214;-50
2023/07/20 06:17:16;;;;;;;2.63;2.43;;;21.00;99.90;;;;;;5041495;28;20259;-50
2023/07/20 06:19:43;;;;;;;1.50;1.50;;;21.30;99.90;;;;;;5037754;28;20260;-51
2023/07/20 06:22:10;;;;;;;2.40;1.43;;;21.40;99.90;;;;;;5049948;28;20206;-51
2023/07/20 06:24:38;;;;;;;8.27;1.63;;;21.60;99.90;;;;;;5042648;28;20199;-51
2023/07/20 06:27:06;;;;;;;4.33;1.90;;;21.70;99.90;;;;;;5039610;28;20706;-50
2023/07/20 06:29:33;;;;;;;2.83;1.53;;;22.00;99.90;;;;;;5043641;28;20269;-51
2023/07/20 06:32:00;;;;;;;4.33;2.20;;;22.20;99.90;;;;;;5043806;28;20663;-51
2023/07/20 06:34:27;;;;;;;1.37;1.33;;;22.00;99.90;;;;;;5048199;28;20774;-51
2023/07/20 06:36:54;;;;;;;2.77;1.77;;;21.90;99.90;;;;;;5043684;28;20217;-52
2023/07/20 06:39:22;;;;;;;1.40;1.30;;;21.70;99.90;;;;;;5038697;28;20198;-51
2023/07/20 06:41:50;;;;;;;2.23;1.50;;;21.60;99.90;;;;;;5040460;28;20206;-51
2023/07/20 06:44:17;;;;;;;2.53;1.90;;;21.50;99.90;;;;;;5038718;28;20226;-50
2023/07/20 06:46:44;;;;;;;1.80;1.70;;;21.50;99.90;;;;;;5036642;28;20222;-50
2023/07/20 06:49:24;;;;;;;5.63;1.53;;;21.60;99.90;;;;;;5036251;28;20191;-50
2023/07/20 06:51:51;;;;;;;1.47;1.47;;;21.50;99.90;;;;;;5039924;28;20260;-50
2023/07/20 06:54:18;;;;;;;2.50;1.50;;;21.50;99.90;;;;;;5044196;28;20225;-50
2023/07/20 06:56:45;;;;;;;7.40;2.17;;;21.50;99.90;;;;;;5039848;28;20222;-50
2023/07/20 06:59:14;;;;;;;1.50;1.40;;;21.50;99.90;;;;;;5033152;28;20260;-50
2023/07/20 07:01:41;;;;;;;4.17;1.77;;;21.50;99.90;;;;;;5040615;28;20210;-50
2023/07/20 07:04:08;;;;;;;1.40;1.40;;;21.70;99.90;;;;;;5042356;28;20753;-50
2023/07/20 07:06:36;;;;;;;5.83;1.63;;;21.80;99.90;;;;;;5041452;28;20773;-50
2023/07/20 07:09:03;;;;;;;3.13;2.13;;;22.00;99.90;;;;;;5034054;28;20290;-50
2023/07/20 07:11:30;;;;;;;2.30;1.90;;;22.30;99.90;;;;;;5038918;28;20623;-50
2023/07/20 07:13:58;;;;;;;5.30;1.67;;;22.50;99.90;;;;;;5032462;28;20222;-50
2023/07/20 07:16:26;;;;;;;4.73;2.20;;;23.00;99.90;;;;;;5041004;28;20232;-50
2023/07/20 07:18:53;;;;;;;3.20;1.60;;;24.00;99.90;;;;;;5048150;28;20201;-50
2023/07/20 07:21:21;;;;;;;4.00;1.97;;;25.20;99.90;;;;;;5035531;28;20289;-51
2023/07/20 07:23:49;;;;;;;2.70;1.43;;;26.80;99.90;;;;;;5041527;28;20658;-50
2023/07/20 07:26:16;;;;;;;2.60;1.40;;;27.80;99.90;;;;;;5031394;28;20483;-50
2023/07/20 07:28:43;;;;;;;2.45;1.40;;;28.50;99.90;;;;;;5037902;28;20206;-50
2023/07/20 07:31:10;;;;;;;2.15;1.08;;;29.40;99.90;;;;;;5043984;28;20202;-50
2023/07/20 07:33:39;;;;;;;2.78;1.60;;;30.10;99.90;;;;;;5046660;28;20217;-50
2023/07/20 07:36:06;;;;;;;1.02;1.02;;;30.50;99.90;;;;;;5050636;28;20886;-51
2023/07/20 07:38:33;;;;;;;1.40;1.40;;;30.90;99.90;;;;;;5034629;28;20203;-59
2023/07/20 07:41:00;;;;;;;2.05;1.27;;;31.70;98.70;;;;;;5033017;28;20263;-64
2023/07/20 07:43:27;;;;;;;1.95;1.15;;;31.70;97.20;;;;;;5042930;28;20198;-62
2023/07/20 07:45:57;;;;;;;2.90;1.67;;;32.00;95.90;;;;;;5050220;28;20198;-61
2023/07/20 07:48:25;;;;;;;1.40;1.30;;;32.10;96.10;;;;;;5049835;28;20282;-51
2023/07/20 07:50:54;;;;;;;2.15;1.60;;;32.20;97.40;;;;;;5046388;28;20194;-51
2023/07/20 07:53:21;;;;;;;1.65;1.23;;;31.90;95.50;;;;;;5040765;28;20202;-51
2023/07/20 07:55:49;;;;;;;1.40;1.20;;;31.30;95.40;;;;;;5032491;28;20268;-51
2023/07/20 07:58:16;;;;;;;2.70;1.88;;;31.20;96.80;;;;;;5038943;28;20196;-51
2023/07/20 08:00:44;;;;;;;1.95;1.73;;;30.80;96.30;;;;;;5050597;28;20614;-51
2023/07/20 08:03:11;;;;;;;1.80;1.70;;;30.90;95.50;;;;;;5050163;28;20288;-51
2023/07/20 08:05:38;;;;;;;3.95;2.08;;;31.40;98.10;;;;;;5050128;28;20189;-51
2023/07/20 08:08:08;;;;;;;2.25;1.98;;;31.70;95.90;;;;;;5050477;28;20205;-51
2023/07/20 08:10:35;;;;;;;7.53;2.20;;;31.60;97.10;;;;;;5048217;28;20271;-51
2023/07/20 08:13:02;;;;;;;1.65;1.33;;;31.00;96.30;;;;;;5038944;28;20202;-51
2023/07/20 08:15:29;;;;;;;2.65;2.25;;;31.80;94.90;;;;;;5031695;28;20214;-51
2023/07/20 08:17:56;;;;;;;2.00;1.90;;;31.10;96.50;;;;;;5031479;28;20214;-51
2023/07/20 08:20:26;;;;;;;2.17;1.40;;;31.30;97.00;;;;;;5074364;22;20249;-56
2023/07/20 08:22:54;;;;;;;4.85;1.40;;;31.60;94.60;;;;;;5058984;28;20586;-56
2023/07/20 08:25:22;;;;;;;1.80;1.40;;;31.90;94.40;;;;;;5066336;28;20280;-56
2023/07/20 08:27:49;;;;;;;2.80;1.75;;;32.20;94.10;;;;;;5061827;28;20197;-56
2023/07/20 08:30:17;;;;;;;1.65;1.58;;;32.10;93.90;;;;;;5052355;28;20317;-56
2023/07/20 08:32:46;;;;;;;1.67;1.58;;;31.70;92.90;;;;;;5050354;28;20198;-56
2023/07/20 08:35:15;;;;;;;2.75;1.65;;;31.60;93.40;;;;;;5036958;28;20230;-55
2023/07/20 08:37:42;;;;;;;1.52;1.10;;;31.50;94.00;;;;;;5041523;28;20203;-56
2023/07/20 08:40:10;;;;;;;1.60;1.50;;;31.40;91.80;;;;;;5048318;28;20233;-56
2023/07/20 08:42:43;;;;;;;1.40;1.25;;;31.30;93.40;;;;;;5035103;28;20678;-56
2023/07/20 08:45:13;;;;;;;3.58;1.48;;;32.00;92.30;;;;;;5037285;28;20284;-56
2023/07/20 08:47:46;;;;;;;4.57;2.08;;;32.10;91.90;;;;;;5049425;28;20229;-56
2023/07/20 08:50:14;;;;;;;2.15;1.63;;;32.10;93.60;;;;;;5034807;28;20619;-56
2023/07/20 08:52:44;;;;;;;4.20;1.65;;;32.60;90.60;;;;;;5041653;28;20259;-56
2023/07/20 08:55:11;;;;;;;1.13;1.13;;;32.40;91.80;;;;;;5050873;28;20215;-56
2023/07/20 08:57:46;;;;;;;1.23;1.20;;;32.40;91.50;;;;;;5039266;28;20206;-56
2023/07/20 09:00:15;;;;;;;1.63;1.50;;;32.20;92.10;;;;;;5042982;28;20640;-56
2023/07/20 09:02:47;;;;;;;2.85;1.98;;;31.40;91.70;;;;;;5050463;28;20205;-56
2023/07/20 09:05:14;;;;;;;2.97;2.42;;;31.50;92.10;;;;;;5041245;28;20199;-56
2023/07/20 09:07:44;;;;;;;1.77;1.48;;;31.20;92.50;;;;;;5043335;28;20738;-55
2023/07/20 09:10:12;;;;;;;2.33;1.38;;;31.50;92.00;;;;;;5031153;28;20280;-56
2023/07/20 09:12:44;;;;;;;1.38;1.27;;;31.90;93.30;;;;;;5031185;28;20584;-56
2023/07/20 09:15:13;;;;;;;1.92;1.38;;;32.30;92.60;;;;;;5032034;28;20230;-56
2023/07/20 09:17:40;;;;;;;2.67;1.38;;;31.90;90.40;;;;;;5050909;28;20286;-56
2023/07/20 09:20:10;;;;;;;1.70;1.38;;;32.40;89.00;;;;;;5042484;28;20226;-56
2023/07/20 09:22:39;;;;;;;2.45;1.73;;;32.10;91.50;;;;;;5049179;28;20631;-56
2023/07/20 09:25:08;;;;;;;2.60;1.73;;;30.80;91.10;;;;;;5045703;28;20622;-56
2023/07/20 09:27:43;;;;;;;1.67;1.67;;;30.90;90.80;;;;;;5038474;28;20650;-56
2023/07/20 09:30:13;;;;;;;1.67;1.40;;;31.20;91.30;;;;;;5050560;28;20218;-56
2023/07/20 09:32:44;;;;;;;2.20;1.50;;;31.70;91.30;;;;;;5043472;28;20574;-55
2023/07/20 09:35:15;;;;;;;1.98;1.88;;;32.00;90.90;;;;;;5050352;28;20687;-57
2023/07/20 09:37:52;;;;;;;1.25;1.20;;;31.80;90.00;;;;;;5037158;28;20286;-56
2023/07/20 09:40:20;;;;;;;2.30;1.45;;;32.40;89.00;;;;;;5037726;28;20296;-56
2023/07/20 09:42:53;;;;;;;1.27;1.27;;;32.30;88.40;;;;;;5048633;28;20234;-55
2023/07/20 09:45:21;;;;;;;1.23;1.17;;;32.60;85.10;;;;;;5045995;28;20210;-55
2023/07/20 09:47:48;;;;;;;1.85;1.60;;;32.10;89.50;;;;;;5050505;28;20194;-56
2023/07/20 09:50:15;;;;;;;1.52;1.40;;;31.50;90.20;;;;;;5050418;28;20272;-56
2023/07/20 09:52:47;;;;;;;1.63;1.63;;;32.00;90.30;;;;;;5043146;28;20832;-56
2023/07/20 09:55:14;;;;;;;3.90;1.50;;;32.40;91.90;;;;;;5033553;28;20210;-56
2023/07/20 09:57:44;;;;;;;3.00;1.40;;;31.50;90.20;;;;;;5051197;28;20251;-55
2023/07/20 10:00:14;;;;;;;1.65;1.55;;;31.60;90.40;;;;;;5047948;28;20246;-56
2023/07/20 10:02:45;;;;;;;1.60;1.50;;;31.40;90.90;;;;;;5043229;28;20208;-55
2023/07/20 10:05:14;;;;;;;2.03;1.35;;;30.90;92.40;;;;;;5048861;28;20190;-56
2023/07/20 10:07:48;;;;;;;2.00;1.85;;;31.30;89.80;;;;;;5051696;28;20197;-56
2023/07/20 10:10:17;;;;;;;2.35;1.80;;;31.40;91.10;;;;;;5041285;28;20237;-56
2023/07/20 10:12:48;;;;;;;1.98;1.77;;;31.90;90.60;;;;;;5051835;28;20623;-55
2023/07/20 10:15:19;;;;;;;2.22;1.20;;;32.10;88.50;;;;;;5047410;28;20602;-56
2023/07/20 10:17:58;;;;;;;1.88;1.73;;;32.20;90.70;;;;;;5049847;28;20671;-55
2023/07/20 10:20:27;;;;;;;1.70;1.60;;;32.30;88.60;;;;;;5051761;28;20283;-56
2023/07/20 10:22:56;;;;;;;1.65;1.50;;;32.50;90.70;;;;;;5051818;28;20274;-56
2023/07/20 10:25:24;;;;;;;2.05;1.23;;;32.80;90.00;;;;;;5051797;28;20198;-56
2023/07/20 10:27:52;;;;;;;2.88;1.58;;;31.80;91.30;;;;;;5054381;28;20723;-56
2023/07/20 10:30:21;;;;;;;1.38;1.38;;;31.90;91.00;;;;;;5047819;28;20222;-56
2023/07/20 10:32:49;;;;;;;3.70;2.20;;;32.10;90.50;;;;;;5049678;28;20194;-56
2023/07/20 10:35:17;;;;;;;1.90;1.42;;;32.40;90.20;;;;;;5040622;28;20577;-56
2023/07/20 10:37:49;;;;;;;1.42;1.30;;;32.50;91.10;;;;;;5034136;28;20206;-55
2023/07/20 10:40:32;;;;;;;1.98;1.27;;;32.70;86.30;;;;;;5033569;28;20253;-56
2023/07/20 10:43:06;;;;;;;2.53;1.90;;;32.60;91.00;;;;;;5036915;28;20202;-56
2023/07/20 10:45:53;;;;;;;2.33;1.15;;;32.50;90.50;;;;;;5050767;28;20194;-55
2023/07/20 10:48:23;;;;;;;3.15;1.60;;;32.20;91.00;;;;;;5045350;28;20256;-56
2023/07/20 10:51:20;;;;;;;3.20;1.60;;;31.80;87.50;;;;;;5031882;28;20508;-61
2023/07/20 10:53:49;;;;;;;1.48;1.45;;;31.70;91.80;;;;;;5048458;28;20248;-63
2023/07/20 10:56:21;;;;;;;1.00;0.90;;;31.50;90.30;;;;;;5044984;28;20218;-67
2023/07/20 10:58:48;;;;;;;3.03;1.35;;;31.30;92.40;;;;;;5040608;28;20336;-65
2023/07/20 11:01:18;;;;;;;2.92;1.52;;;31.10;91.80;;;;;;5038579;28;20226;-67
2023/07/20 11:03:51;;;;;;;2.85;1.50;;;30.80;93.00;;;;;;5032129;28;20688;-66
2023/07/20 11:06:33;;;;;;;2.67;1.20;;;30.50;92.60;;;;;;5032814;28;20214;-67
2023/07/20 11:09:07;;;;;;;1.63;1.25;;;29.90;93.00;;;;;;5032608;28;20661;-62
2023/07/20 11:11:36;;;;;;;2.05;1.77;;;29.10;94.00;;;;;;5039519;28;20285;-64
2023/07/20 11:14:05;;;;;;;2.70;0.70;;;28.60;93.80;;;;;;5041080;28;20285;-63
2023/07/20 11:16:41;;;;;;;2.65;1.13;;;28.70;94.70;;;;;;5051161;28;20596;-63
2023/07/20 11:19:16;;;;;;;1.52;1.25;;;28.10;95.20;;;;;;5045014;28;20690;-63
2023/07/20 11:21:45;;;;;;;1.48;1.23;;;28.20;96.70;;;;;;5032452;28;20294;-63
2023/07/20 11:24:13;;;;;;;1.80;1.00;;;28.20;95.20;;;;;;5047153;28;20198;-62
2023/07/20 11:26:45;;;;;;;1.05;1.05;;;28.00;95.20;;;;;;5050919;28;20205;-63
2023/07/20 11:29:12;;;;;;;4.55;1.35;;;27.70;96.10;;;;;;5040763;28;20199;-65
2023/07/20 11:31:41;;;;;;;1.25;1.05;;;27.50;94.20;;;;;;5036989;28;20385;-69
2023/07/20 11:34:11;;;;;;;1.02;0.85;;;27.40;96.20;;;;;;5047917;28;20252;-68
2023/07/20 11:36:38;;;;;;;3.57;0.87;;;27.20;94.60;;;;;;5050899;28;20226;-65
2023/07/20 11:39:07;;;;;;;1.43;0.70;;;27.10;95.50;;;;;;5050539;28;20283;-69
2023/07/20 11:41:34;;;;;;;1.80;0.90;;;27.10;94.70;;;;;;5052156;28;20206;-69
2023/07/20 11:44:01;;;;;;;0.95;0.95;;;27.30;95.80;;;;;;5048944;28;20213;-68
2023/07/20 11:46:29;;;;;;;1.73;1.13;;;27.60;96.50;;;;;;5049024;28;20190;-63
2023/07/20 11:49:00;;;;;;;1.27;0.95;;;27.80;94.20;;;;;;5043779;28;20653;-68
2023/07/20 11:51:28;;;;;;;1.05;1.05;;;27.70;95.60;;;;;;5050503;28;20296;-68
2023/07/20 11:53:55;;;;;;;1.45;1.25;;;27.40;96.30;;;;;;5052958;28;20202;-68
2023/07/20 11:56:24;;;;;;;0.90;0.90;;;27.20;94.70;;;;;;5045181;28;20214;-68
2023/07/20 11:58:51;;;;;;;1.45;1.30;;;26.90;95.20;;;;;;5042706;28;20252;-68
2023/07/20 12:01:20;;;;;;;4.23;1.53;;;26.70;95.50;;;;;;5037452;28;20229;-65
2023/07/20 12:03:48;;;;;;;2.40;1.10;;;26.60;97.20;;;;;;5031632;28;20294;-64
2023/07/20 12:06:17;;;;;;;1.33;1.33;;;26.50;98.00;;;;;;5031150;28;20260;-67
2023/07/20 12:08:45;;;;;;;5.87;1.50;;;26.70;96.30;;;;;;5035192;28;20197;-69
2023/07/20 12:11:12;;;;;;;1.17;1.17;;;26.60;97.70;;;;;;5034576;28;20226;-69
2023/07/20 12:13:40;;;;;;;3.05;1.33;;;26.60;98.30;;;;;;5039728;28;20567;-65
2023/07/20 12:16:12;;;;;;;1.30;1.10;;;26.70;98.60;;;;;;5033163;28;20636;-63
2023/07/20 12:18:39;;;;;;;1.33;1.30;;;26.50;96.40;;;;;;5030839;28;20194;-65
2023/07/20 12:21:08;;;;;;;2.27;1.40;;;26.20;97.00;;;;;;5045832;28;20229;-64
2023/07/20 12:23:41;;;;;;;1.80;1.70;;;26.00;99.60;;;;;;5049171;28;20285;-65
2023/07/20 12:26:09;;;;;;;1.47;1.10;;;26.00;98.80;;;;;;5042477;28;20252;-64
2023/07/20 12:28:40;;;;;;;2.93;1.50;;;26.20;98.40;;;;;;5039452;28;20747;-61
2023/07/20 12:31:08;;;;;;;2.43;1.97;;;26.10;99.10;;;;;;5046268;28;20583;-63
2023/07/20 12:33:35;;;;;;;1.47;1.27;;;26.00;98.50;;;;;;5057082;28;20198;-64
2023/07/20 12:36:02;;;;;;;2.78;2.10;;;26.10;98.70;;;;;;5041997;28;20218;-66
2023/07/20 12:38:30;;;;;;;1.80;1.70;;;26.10;99.10;;;;;;5044209;28;20201;-67
2023/07/20 12:41:00;;;;;;;2.40;2.07;;;26.00;99.00;;;;;;5044379;28;20225;-75
2023/07/20 12:43:27;;;;;;;1.83;1.73;;;26.00;99.10;;;;;;5049362;28;20208;-54
2023/07/20 12:45:54;;;;;;;2.83;1.37;;;26.00;99.80;;;;;;5050919;28;20198;-54
2023/07/20 12:48:21;;;;;;;2.07;1.77;;;26.20;99.80;;;;;;5049832;28;20205;-55
2023/07/20 12:50:48;;;;;;;1.60;1.50;;;26.20;99.60;;;;;;5049767;28;20218;-54
2023/07/20 12:53:15;;;;;;;2.10;1.73;;;26.30;98.50;;;;;;5056830;28;20277;-54
2023/07/20 12:55:42;;;;;;;1.87;1.57;;;26.40;99.20;;;;;;5049597;28;20221;-56